createdAt,value
2022-10-19T00:01:16.743Z,8.95
2022-10-19T00:03:46.682Z,8.85
2022-10-19T00:06:26.260Z,8.70
2022-10-19T00:08:58.540Z,8.70
2022-10-19T00:11:26.883Z,7.95
2022-10-19T00:13:55.493Z,7.38
2022-10-19T00:16:23.739Z,7.43
2022-10-19T00:18:50.909Z,6.20
2022-10-19T00:21:19.872Z,7.07
2022-10-19T00:23:47.445Z,6.38
2022-10-19T00:26:14.774Z,5.72
2022-10-19T00:28:42.753Z,6.05
2022-10-19T00:31:15.187Z,5.28
2022-10-19T00:33:43.863Z,5.25
2022-10-19T00:36:20.323Z,5.95
2022-10-19T00:38:48.316Z,6.35
2022-10-19T00:41:17.319Z,6.10
2022-10-19T00:43:57.972Z,5.82
2022-10-19T00:46:26.626Z,6.55
2022-10-19T00:49:01.064Z,6.78
2022-10-19T00:51:30.585Z,7.35
2022-10-19T00:53:58.196Z,7.32
2022-10-19T00:56:25.443Z,7.20
2022-10-19T00:58:52.920Z,6.38
2022-10-19T01:01:24.076Z,7.45
2022-10-19T01:03:51.441Z,7.72
2022-10-19T01:06:20.073Z,6.80
2022-10-19T01:08:47.548Z,6.65
2022-10-19T01:11:29.733Z,6.95
2022-10-19T01:14:38.894Z,6.80
2022-10-19T01:17:12.035Z,6.82
2022-10-19T01:19:57.702Z,7.45
2022-10-19T01:22:37.064Z,6.78
2022-10-19T01:25:24.853Z,6.80
2022-10-19T01:28:15.430Z,7.07
2022-10-19T01:31:14.636Z,7.75
2022-10-19T01:34:02.316Z,8.10
2022-10-19T01:36:48.160Z,7.78
2022-10-19T01:39:23.603Z,6.88
2022-10-19T01:42:08.149Z,6.68
2022-10-19T01:44:50.633Z,7.32
2022-10-19T01:47:25.195Z,8.00
2022-10-19T01:50:29.224Z,7.15
2022-10-19T01:52:58.086Z,8.25
2022-10-19T01:55:27.242Z,7.75
2022-10-19T01:58:00.744Z,7.45
2022-10-19T02:00:29.814Z,7.18
2022-10-19T02:02:58.814Z,6.78
2022-10-19T02:05:31.646Z,6.82
2022-10-19T02:08:03.307Z,7.22
2022-10-19T02:10:33.966Z,6.25
2022-10-19T02:13:03.592Z,6.53
2022-10-19T02:15:35.442Z,6.40
2022-10-19T02:18:04.132Z,6.38
2022-10-19T02:20:31.783Z,6.18
2022-10-19T02:22:59.155Z,6.18
2022-10-19T02:25:27.135Z,6.03
2022-10-19T02:27:54.625Z,6.38
2022-10-19T02:30:22.693Z,6.00
2022-10-19T02:32:50.601Z,6.13
2022-10-19T02:35:18.195Z,6.60
2022-10-19T02:37:45.953Z,6.55
2022-10-19T02:40:13.487Z,6.63
2022-10-19T02:42:43.617Z,6.05
2022-10-19T02:45:18.005Z,6.63
2022-10-19T02:48:02.595Z,6.68
2022-10-19T02:50:29.923Z,7.28
2022-10-19T02:52:59.693Z,6.03
2022-10-19T02:55:27.031Z,6.05
2022-10-19T02:57:55.090Z,6.22
2022-10-19T03:00:22.380Z,6.63
2022-10-19T03:02:49.627Z,6.97
2022-10-19T03:05:16.873Z,5.97
2022-10-19T03:07:44.027Z,6.20
2022-10-19T03:10:11.248Z,5.82
2022-10-19T03:12:38.507Z,6.00
2022-10-19T03:15:06.573Z,6.55
2022-10-19T03:17:34.150Z,6.05
2022-10-19T03:20:01.422Z,6.15
2022-10-19T03:22:28.664Z,6.63
2022-10-19T03:24:56.019Z,6.10
2022-10-19T03:27:23.100Z,5.75
2022-10-19T03:29:50.268Z,5.43
2022-10-19T03:32:17.440Z,5.47
2022-10-19T03:34:44.486Z,5.43
2022-10-19T03:37:13.747Z,4.82
2022-10-19T03:39:41.272Z,5.03
2022-10-19T03:42:08.369Z,5.50
2022-10-19T03:44:35.633Z,5.00
2022-10-19T03:47:02.787Z,4.45
2022-10-19T03:49:29.933Z,4.15
2022-10-19T03:51:58.104Z,4.13
2022-10-19T03:54:27.409Z,4.45
2022-10-19T03:56:54.904Z,3.90
2022-10-19T03:59:23.443Z,3.90
2022-10-19T04:01:50.723Z,3.67
2022-10-19T04:04:19.603Z,4.03
2022-10-19T04:06:49.156Z,3.97
2022-10-19T04:09:19.294Z,4.47
2022-10-19T04:11:46.836Z,3.83
2022-10-19T04:14:22.876Z,4.00
2022-10-19T04:17:01.729Z,4.00
2022-10-19T04:19:28.996Z,4.03
2022-10-19T04:21:56.386Z,3.63
2022-10-19T04:24:23.917Z,3.75
2022-10-19T04:26:53.496Z,3.92
2022-10-19T04:29:23.802Z,3.97
2022-10-19T04:31:53.935Z,3.50
2022-10-19T04:34:21.273Z,3.60
2022-10-19T04:36:48.357Z,3.83
2022-10-19T04:39:16.604Z,3.97
2022-10-19T04:41:43.744Z,3.25
2022-10-19T04:44:11.055Z,4.20
2022-10-19T04:46:38.870Z,3.38
2022-10-19T04:49:07.385Z,4.00
2022-10-19T04:51:35.134Z,3.38
2022-10-19T04:54:04.084Z,4.13
2022-10-19T04:56:32.733Z,3.20
2022-10-19T04:59:01.268Z,4.15
2022-10-19T05:01:31.128Z,3.22
2022-10-19T05:04:00.912Z,4.05
2022-10-19T05:06:29.136Z,3.65
2022-10-19T05:08:56.688Z,2.88
2022-10-19T05:11:24.215Z,2.78
2022-10-19T05:13:52.110Z,3.67
2022-10-19T05:16:22.207Z,3.42
2022-10-19T05:18:50.963Z,3.47
2022-10-19T05:21:19.394Z,3.20
2022-10-19T05:23:46.447Z,3.22
2022-10-19T05:26:18.298Z,3.47
2022-10-19T05:28:50.385Z,3.75
2022-10-19T05:31:20.020Z,2.95
2022-10-19T05:33:47.696Z,3.67
2022-10-19T05:36:22.434Z,2.97
2022-10-19T05:38:50.843Z,3.05
2022-10-19T05:41:18.083Z,3.08
2022-10-19T05:43:46.163Z,3.53
2022-10-19T05:46:18.172Z,3.60
2022-10-19T05:48:46.586Z,3.30
2022-10-19T05:51:16.856Z,3.15
2022-10-19T05:53:44.933Z,3.38
2022-10-19T05:56:19.057Z,3.22
2022-10-19T05:58:46.520Z,2.97
2022-10-19T06:01:14.493Z,3.42
2022-10-19T06:03:42.388Z,3.83
2022-10-19T06:06:10.168Z,4.13
2022-10-19T06:08:39.149Z,3.15
2022-10-19T06:11:18.943Z,3.38
2022-10-19T06:13:47.938Z,3.20
2022-10-19T06:16:16.457Z,3.15
2022-10-19T06:18:44.290Z,2.80
2022-10-19T06:21:17.893Z,3.40
2022-10-19T06:23:46.131Z,2.67
2022-10-19T06:26:14.851Z,3.10
2022-10-19T06:28:44.259Z,2.50
2022-10-19T06:31:13.735Z,2.30
2022-10-19T06:33:43.927Z,2.53
2022-10-19T06:36:14.852Z,2.83
2022-10-19T06:38:42.626Z,2.75
2022-10-19T06:41:11.295Z,2.83
2022-10-19T06:43:38.982Z,2.33
2022-10-19T06:46:12.212Z,2.75
2022-10-19T06:48:39.466Z,2.50
2022-10-19T06:51:07.961Z,2.53
2022-10-19T06:53:36.325Z,2.50
2022-10-19T06:56:06.333Z,2.63
2022-10-19T06:58:38.053Z,2.92
2022-10-19T07:01:10.610Z,2.60
2022-10-19T07:03:38.159Z,2.35
2022-10-19T07:06:10.407Z,2.33
2022-10-19T07:08:39.275Z,2.30
2022-10-19T07:11:09.453Z,3.25
2022-10-19T07:13:37.035Z,2.45
2022-10-19T07:16:16.147Z,2.67
2022-10-19T07:18:47.469Z,2.90
2022-10-19T07:21:16.667Z,2.75
2022-10-19T07:23:45.657Z,2.63
2022-10-19T07:26:26.801Z,2.70
2022-10-19T07:28:57.066Z,2.83
2022-10-19T07:31:25.623Z,2.35
2022-10-19T07:34:01.532Z,2.72
2022-10-19T07:36:30.799Z,3.03
2022-10-19T07:38:58.173Z,2.88
2022-10-19T07:41:26.442Z,2.58
2022-10-19T07:43:54.807Z,2.50
2022-10-19T07:46:25.726Z,2.20
2022-10-19T07:48:53.851Z,2.55
2022-10-19T07:51:21.815Z,2.30
2022-10-19T07:53:49.026Z,2.22
2022-10-19T07:56:21.358Z,2.33
2022-10-19T07:58:50.817Z,2.83
2022-10-19T08:01:41.639Z,2.20
2022-10-19T08:06:56.129Z,2.25
2022-10-19T08:09:50.987Z,1.88
2022-10-19T08:12:14.788Z,2.13
2022-10-19T08:14:42.425Z,2.10
2022-10-19T08:17:12.304Z,2.90
2022-10-19T08:19:43.692Z,2.58
2022-10-19T08:22:11.608Z,3.22
2022-10-19T08:24:39.075Z,3.47
2022-10-19T08:27:06.367Z,3.45
2022-10-19T08:29:33.590Z,3.20
2022-10-19T08:32:00.703Z,2.55
2022-10-19T08:34:28.095Z,2.83
2022-10-19T08:36:55.395Z,2.80
2022-10-19T08:39:22.622Z,2.38
2022-10-19T08:42:02.356Z,2.20
2022-10-19T08:44:51.359Z,1.90
2022-10-19T08:48:09.003Z,1.50
2022-10-19T08:50:39.983Z,1.75
2022-10-19T08:53:31.982Z,1.23
2022-10-19T08:56:22.151Z,1.52
2022-10-19T09:01:59.279Z,1.60
2022-10-19T09:04:35.264Z,1.70
2022-10-19T09:07:23.074Z,1.80
2022-10-19T09:09:58.083Z,1.70
2022-10-19T09:12:55.028Z,1.20
2022-10-19T09:15:46.903Z,1.13
2022-10-19T09:18:28.637Z,1.10
2022-10-19T09:21:04.959Z,1.10
2022-10-19T09:23:45.582Z,1.10
2022-10-19T09:26:18.252Z,1.20
2022-10-19T09:28:52.267Z,1.38
2022-10-19T09:31:31.823Z,1.10
2022-10-19T09:34:08.986Z,1.20
2022-10-19T09:36:56.973Z,0.88
2022-10-19T09:39:29.303Z,0.90
2022-10-19T09:42:08.286Z,0.80
2022-10-19T09:44:36.545Z,0.70
2022-10-19T09:47:27.183Z,0.70
2022-10-19T09:50:09.392Z,0.70
2022-10-19T09:52:39.773Z,0.55
2022-10-19T09:57:52.063Z,0.70
2022-10-19T10:00:26.463Z,0.50
2022-10-19T10:02:55.845Z,0.88
2022-10-19T10:05:35.313Z,0.63
2022-10-19T10:08:03.036Z,1.00
2022-10-19T10:10:37.567Z,0.50
2022-10-19T10:13:06.450Z,0.57
2022-10-19T10:15:55.291Z,0.73
2022-10-19T10:18:25.106Z,0.68
2022-10-19T10:21:00.552Z,0.50
2022-10-19T10:23:36.537Z,0.60
2022-10-19T10:26:05.258Z,0.60
2022-10-19T10:28:32.981Z,0.60
2022-10-19T10:31:11.068Z,0.70
2022-10-19T10:33:46.271Z,0.70
2022-10-19T10:36:15.120Z,0.63
2022-10-19T10:38:47.763Z,0.47
2022-10-19T10:41:18.244Z,0.70
2022-10-19T10:44:05.023Z,0.60
2022-10-19T10:46:41.519Z,0.93
2022-10-19T10:49:21.162Z,0.50
2022-10-19T10:51:54.534Z,0.60
2022-10-19T10:54:31.523Z,0.50
2022-10-19T10:57:20.144Z,0.63
2022-10-19T10:59:47.528Z,0.52
2022-10-19T11:02:46.871Z,0.38
2022-10-19T11:05:20.403Z,0.60
2022-10-19T11:07:53.497Z,0.50
2022-10-19T11:10:32.218Z,0.50
2022-10-19T11:13:15.490Z,0.40
2022-10-19T11:16:06.352Z,0.40
2022-10-19T11:19:16.142Z,0.60
2022-10-19T11:21:56.610Z,0.40
2022-10-19T11:24:47.930Z,0.40
2022-10-19T11:27:53.323Z,0.40
2022-10-19T11:30:23.488Z,0.50
2022-10-19T11:33:00.400Z,0.60
2022-10-19T11:35:33.097Z,0.47
2022-10-19T11:38:31.418Z,0.60
2022-10-19T11:41:19.135Z,0.40
2022-10-19T11:44:11.197Z,0.32
2022-10-19T11:47:17.551Z,0.40
2022-10-19T11:52:48.957Z,0.38
2022-10-19T11:55:37.087Z,0.50
2022-10-19T11:58:21.499Z,0.50
2022-10-19T12:01:09.924Z,0.50
2022-10-19T12:04:00.157Z,0.50
2022-10-19T12:07:04.965Z,0.55
2022-10-19T12:09:43.648Z,0.38
2022-10-19T12:12:33.034Z,0.50
2022-10-19T12:15:12.941Z,0.53
2022-10-19T12:17:44.572Z,0.60
2022-10-19T12:20:19.955Z,0.50
2022-10-19T12:22:49.613Z,0.43
2022-10-19T12:25:18.570Z,0.40
2022-10-19T12:27:49.540Z,0.30
2022-10-19T12:30:22.632Z,0.30
2022-10-19T12:33:09.632Z,0.60
2022-10-19T12:36:08.046Z,0.40
2022-10-19T12:39:01.183Z,0.50
2022-10-19T12:41:44.655Z,0.50
2022-10-19T12:44:35.877Z,0.50
2022-10-19T12:47:18.294Z,0.60
2022-10-19T12:49:53.683Z,0.60
2022-10-19T12:52:41.691Z,1.08
2022-10-19T12:55:18.223Z,0.40
2022-10-19T12:57:56.909Z,0.30
2022-10-19T13:00:32.472Z,0.35
2022-10-19T13:03:24.967Z,0.22
2022-10-19T13:05:59.719Z,0.43
2022-10-19T13:08:33.365Z,0.32
2022-10-19T13:11:09.089Z,0.43
2022-10-19T13:13:57.504Z,0.90
2022-10-19T13:16:31.232Z,0.40
2022-10-19T13:19:15.367Z,0.45
2022-10-19T13:21:54.926Z,0.50
2022-10-19T13:24:25.268Z,0.30
2022-10-19T13:29:41.589Z,0.40
2022-10-19T13:32:34.153Z,0.55
2022-10-19T13:35:26.734Z,0.47
2022-10-19T13:38:09.949Z,0.52
2022-10-19T13:40:39.707Z,0.60
2022-10-19T13:43:21.572Z,0.30
2022-10-19T13:46:03.082Z,0.60
2022-10-19T13:48:57.602Z,1.42
2022-10-19T13:51:42.089Z,0.50
2022-10-19T13:54:18.000Z,0.40
2022-10-19T13:56:59.336Z,0.60
2022-10-19T14:00:00.592Z,0.32
2022-10-19T14:02:51.040Z,0.70
2022-10-19T14:08:45.185Z,0.60
2022-10-19T14:11:17.683Z,0.57
2022-10-19T14:13:45.351Z,1.00
2022-10-19T14:16:22.310Z,0.80
2022-10-19T14:18:56.788Z,3.53
2022-10-19T14:21:35.914Z,3.95
2022-10-19T14:24:03.523Z,1.10
2022-10-19T14:26:31.435Z,3.05
2022-10-19T14:29:00.362Z,3.35
2022-10-19T14:31:35.637Z,1.50
2022-10-19T14:34:04.464Z,0.90
2022-10-19T14:36:37.994Z,0.80
2022-10-19T14:39:06.357Z,0.60
2022-10-19T14:41:36.649Z,0.55
2022-10-19T14:44:30.710Z,0.40
2022-10-19T14:47:01.469Z,0.52
2022-10-19T14:49:28.894Z,0.50
2022-10-19T14:52:01.630Z,0.60
2022-10-19T14:54:44.381Z,0.50
2022-10-19T14:57:17.340Z,0.50
2022-10-19T14:59:48.202Z,0.40
2022-10-19T15:02:21.514Z,0.50
2022-10-19T15:04:50.313Z,0.35
2022-10-19T15:07:22.232Z,0.63
2022-10-19T15:10:01.681Z,0.50
2022-10-19T15:12:35.781Z,0.87
2022-10-19T15:15:12.096Z,1.08
2022-10-19T15:17:51.958Z,0.80
2022-10-19T15:20:27.223Z,1.20
2022-10-19T15:22:54.849Z,2.22
2022-10-19T15:25:34.457Z,1.48
2022-10-19T15:28:41.668Z,1.52
2022-10-19T15:31:18.631Z,1.52
2022-10-19T15:33:57.793Z,1.50
2022-10-19T15:36:26.029Z,1.55
2022-10-19T15:39:11.350Z,1.80
2022-10-19T15:41:46.356Z,1.40
2022-10-19T15:44:50.580Z,1.20
2022-10-19T15:47:19.391Z,0.98
2022-10-19T15:49:54.325Z,0.88
2022-10-19T15:52:26.969Z,0.90
2022-10-19T15:54:57.082Z,0.80
2022-10-19T15:57:39.047Z,0.88
2022-10-19T16:00:17.120Z,1.20
2022-10-19T16:02:44.608Z,1.48
2022-10-19T16:05:11.997Z,2.00
2022-10-19T16:07:41.101Z,1.63
2022-10-19T16:10:14.697Z,2.10
2022-10-19T16:12:42.118Z,2.10
2022-10-19T16:15:22.627Z,2.20
2022-10-19T16:17:56.425Z,2.40
2022-10-19T16:20:25.650Z,1.77
2022-10-19T16:22:53.869Z,1.40
2022-10-19T16:25:21.232Z,1.55
2022-10-19T16:27:48.482Z,1.52
2022-10-19T16:30:15.761Z,1.20
2022-10-19T16:32:43.122Z,1.20
2022-10-19T16:35:10.461Z,1.30
2022-10-19T16:37:37.969Z,1.10
2022-10-19T16:40:06.018Z,1.30
2022-10-19T16:42:35.370Z,0.90
2022-10-19T16:45:03.140Z,0.90
2022-10-19T16:47:30.313Z,1.00
2022-10-19T16:50:00.300Z,1.20
2022-10-19T16:52:34.113Z,1.20
2022-10-19T16:55:01.756Z,1.30
2022-10-19T16:57:29.186Z,1.35
2022-10-19T16:59:56.774Z,1.15
2022-10-19T17:02:24.284Z,1.20
2022-10-19T17:04:51.622Z,1.17
2022-10-19T17:07:19.420Z,1.60
2022-10-19T17:09:49.736Z,2.03
2022-10-19T17:12:19.745Z,1.70
2022-10-19T17:14:47.220Z,1.67
2022-10-19T17:17:14.660Z,1.80
2022-10-19T17:19:42.164Z,1.92
2022-10-19T17:22:09.355Z,1.85
2022-10-19T17:24:37.873Z,1.98
2022-10-19T17:27:05.351Z,2.47
2022-10-19T17:29:32.772Z,2.40
2022-10-19T17:32:00.395Z,2.70
2022-10-19T17:34:27.921Z,3.60
2022-10-19T17:36:55.302Z,4.32
2022-10-19T17:39:28.888Z,4.07
2022-10-19T17:42:02.189Z,3.92
2022-10-19T17:44:31.084Z,2.90
2022-10-19T17:46:58.684Z,3.00
2022-10-19T17:49:26.042Z,3.03
2022-10-19T17:51:56.422Z,2.65
2022-10-19T17:54:24.336Z,3.28
2022-10-19T17:56:51.849Z,3.60
2022-10-19T17:59:30.142Z,4.43
2022-10-19T18:02:04.212Z,3.53
2022-10-19T18:04:31.608Z,2.80
2022-10-19T18:06:58.844Z,3.35
2022-10-19T18:09:26.301Z,3.60
2022-10-19T18:11:53.443Z,3.65
2022-10-19T18:14:20.740Z,3.75
2022-10-19T18:16:48.308Z,4.13
2022-10-19T18:19:16.891Z,3.67
2022-10-19T18:21:46.191Z,3.50
2022-10-19T18:24:20.441Z,4.68
2022-10-19T18:26:50.235Z,4.30
2022-10-19T18:29:21.281Z,4.38
2022-10-19T18:31:51.898Z,3.60
2022-10-19T18:34:22.471Z,3.72
2022-10-19T18:36:50.566Z,3.72
2022-10-19T18:39:18.343Z,3.67
2022-10-19T18:41:45.597Z,3.80
2022-10-19T18:44:15.423Z,3.70
2022-10-19T18:46:42.673Z,4.53
2022-10-19T18:49:11.620Z,3.55
2022-10-19T18:51:39.239Z,5.35
2022-10-19T18:54:06.543Z,5.25
2022-10-19T18:56:36.052Z,5.82
2022-10-19T18:59:04.920Z,5.17
2022-10-19T19:01:32.321Z,5.47
2022-10-19T19:04:07.324Z,5.63
2022-10-19T19:06:36.521Z,5.53
2022-10-19T19:09:07.603Z,5.10
2022-10-19T19:11:37.749Z,5.70
2022-10-19T19:14:12.328Z,5.63
2022-10-19T19:16:40.773Z,5.80
2022-10-19T19:19:09.045Z,5.45
2022-10-19T19:21:36.901Z,5.18
2022-10-19T19:24:07.020Z,5.65
2022-10-19T19:26:38.500Z,4.93
2022-10-19T19:29:05.962Z,5.25
2022-10-19T19:31:33.756Z,5.38
2022-10-19T19:34:01.920Z,5.10
2022-10-19T19:36:29.538Z,5.45
2022-10-19T19:38:57.364Z,5.55
2022-10-19T19:41:24.847Z,4.97
2022-10-19T19:43:51.967Z,5.85
2022-10-19T19:46:20.096Z,5.88
2022-10-19T19:48:48.409Z,6.30
2022-10-19T19:51:20.951Z,6.05
2022-10-19T19:53:48.750Z,6.40
2022-10-19T19:56:16.811Z,5.53
2022-10-19T19:58:45.152Z,5.90
2022-10-19T20:01:18.364Z,5.95
2022-10-19T20:03:46.621Z,21.35
2022-10-19T20:06:17.884Z,12.23
2022-10-19T20:08:47.092Z,12.70
2022-10-19T20:11:16.460Z,12.07
2022-10-19T20:13:45.233Z,9.97
2022-10-19T20:16:18.466Z,10.38
2022-10-19T20:18:47.809Z,10.20
2022-10-19T20:21:16.073Z,8.30
2022-10-19T20:23:47.789Z,7.05
2022-10-19T20:26:16.935Z,6.22
2022-10-19T20:28:44.521Z,6.90
2022-10-19T20:31:13.414Z,6.15
2022-10-19T20:33:41.874Z,6.22
2022-10-19T20:36:16.199Z,6.05
2022-10-19T20:38:52.719Z,6.03
2022-10-19T20:41:23.831Z,5.60
2022-10-19T20:43:51.573Z,5.30
2022-10-19T20:46:22.390Z,5.40
2022-10-19T20:48:50.583Z,5.90
2022-10-19T20:51:25.913Z,5.32
2022-10-19T20:53:57.310Z,5.60
2022-10-19T20:56:28.096Z,4.82
2022-10-19T20:59:00.630Z,4.35
2022-10-19T21:01:30.433Z,5.10
2022-10-19T21:04:01.112Z,5.45
2022-10-19T21:06:30.761Z,6.43
2022-10-19T21:08:59.212Z,6.78
2022-10-19T21:11:28.805Z,6.43
2022-10-19T21:13:58.348Z,6.30
2022-10-19T21:16:28.155Z,5.70
2022-10-19T21:18:55.629Z,5.85
2022-10-19T21:21:25.483Z,6.13
2022-10-19T21:23:56.970Z,5.55
2022-10-19T21:26:31.436Z,5.07
2022-10-19T21:28:59.072Z,5.38
2022-10-19T21:31:27.560Z,5.07
2022-10-19T21:33:55.276Z,5.45
2022-10-19T21:36:25.661Z,4.93
2022-10-19T21:41:25.357Z,5.60
2022-10-19T21:43:55.033Z,5.97
2022-10-19T21:46:23.863Z,5.72
2022-10-19T21:48:51.760Z,5.18
2022-10-19T21:51:49.038Z,5.40
2022-10-19T21:54:19.395Z,5.57
2022-10-19T21:59:15.269Z,5.60
2022-10-19T22:01:42.774Z,5.18
2022-10-19T22:04:13.880Z,5.78
2022-10-19T22:06:42.279Z,5.70
2022-10-19T22:09:12.164Z,6.05
2022-10-19T22:11:39.466Z,5.60
2022-10-19T22:14:06.750Z,6.30
2022-10-19T22:16:37.150Z,6.75
2022-10-19T22:19:05.599Z,5.32
2022-10-19T22:21:35.119Z,5.85
2022-10-19T22:24:05.654Z,6.32
2022-10-19T22:26:38.851Z,5.20
2022-10-19T22:29:07.347Z,6.55
2022-10-19T22:31:36.146Z,6.10
2022-10-19T22:34:09.990Z,7.18
2022-10-19T22:36:37.367Z,5.75
2022-10-19T22:39:05.087Z,5.97
2022-10-19T22:41:32.183Z,6.47
2022-10-19T22:43:59.421Z,6.93
2022-10-19T22:46:26.769Z,6.78
2022-10-19T22:48:53.974Z,6.35
2022-10-19T22:51:21.353Z,6.70
2022-10-19T22:53:48.533Z,7.13
2022-10-19T22:56:15.951Z,7.28
2022-10-19T22:58:43.231Z,6.35
2022-10-19T23:01:14.011Z,6.50
2022-10-19T23:03:42.269Z,5.35
2022-10-19T23:06:12.097Z,6.20
2022-10-19T23:08:39.948Z,6.20
2022-10-19T23:11:07.350Z,6.22
2022-10-19T23:13:34.560Z,6.35
2022-10-19T23:16:01.991Z,6.10
2022-10-19T23:18:33.953Z,6.30
2022-10-19T23:21:03.349Z,6.72
2022-10-19T23:23:31.742Z,7.38
2022-10-19T23:26:05.842Z,7.20
2022-10-19T23:28:35.369Z,6.43
2022-10-19T23:31:08.071Z,6.83
2022-10-19T23:33:35.905Z,6.57
2022-10-19T23:36:15.191Z,7.40
2022-10-19T23:38:43.664Z,6.68
2022-10-19T23:41:11.704Z,6.93
2022-10-19T23:43:39.315Z,6.50
2022-10-19T23:46:06.909Z,6.55
2022-10-19T23:48:34.901Z,6.68
2022-10-19T23:51:08.020Z,6.65
2022-10-19T23:53:40.775Z,6.97
2022-10-19T23:56:15.262Z,6.47
2022-10-19T23:58:43.059Z,7.05
